PWSweather.com
Personal Weather Stations
Station Observations
KKYCRABO2
Cedar Creek Lake 840 Ky. Hwy. 39 N, Crab Orchard, KY 40419

Cedar Creek Lake 840 Ky. Hwy. 39 NCrab Orchard, KY 40419

Lat: 37.4736234544238, Lon: -84.5120286941528

Elevation: 952

Station Type: TYCON Power TP1080WC Pro

http://kbweather.net/

High Low Average
Temperature 63.0°F17.2°F 49.8°F9.9°F 56.6°F13.7°F
Dew Point 55.4°F13.0°F 44.6°F7.0°F 49.5°F9.7°F
Winds Calm SSECalm SSE Calm Calm Calm Calm
Wind Gusts 1.3 mph2.1 mph -- 0.4 mph0.6 mph
Humidity 89% 62% 76%
Pressure 29.79 in1008.80 in 29.62 in1003.00 in -
Precipitation 0.00 in0.00 in - -
Hour Temp Dew Point Humidity Winds Wind Gusts Pressure Precip Precip Rate Daily Precip Total
12:00 AM 56.3°F13.5°C 48.2°F9.0°C 71% Calm Calm -- 29.77 in1008.1 mb 0.00 in0.0 mm 0.00 in0.0 mm 0.00 in0.0 mm
12:05 AM 56.3°F13.5°C 48.2°F9.0°C 71% Calm Calm -- 29.77 in1008.1 mb 0.00 in0.0 mm 0.00 in0.0 mm 0.00 in0.0 mm
12:10 AM 56.1°F13.4°C 48.2°F9.0°C 72% Calm Calm -- 29.77 in1008.1 mb 0.00 in0.0 mm 0.00 in0.0 mm 0.00 in0.0 mm
12:15 AM 56.1°F13.4°C 48.2°F9.0°C 72% Calm Calm -- 29.77 in1008.1 mb 0.00 in0.0 mm 0.00 in0.0 mm 0.00 in0.0 mm
12:20 AM 55.9°F13.3°C 48.2°F9.0°C 72% Calm Calm -- 29.77 in1008.1 mb 0.00 in0.0 mm 0.00 in0.0 mm 0.00 in0.0 mm
12:25 AM 56.1°F13.4°C 48.2°F9.0°C 72% Calm Calm -- 29.77 in1008.1 mb 0.00 in0.0 mm 0.00 in0.0 mm 0.00 in0.0 mm
12:30 AM 55.9°F13.3°C 48.2°F9.0°C 72% Calm Calm -- 29.77 in1008.1 mb 0.00 in0.0 mm 0.00 in0.0 mm 0.00 in0.0 mm
12:35 AM 55.9°F13.3°C 48.2°F9.0°C 73% Calm Calm -- 29.77 in1008.1 mb 0.00 in0.0 mm 0.00 in0.0 mm 0.00 in0.0 mm
12:40 AM 55.9°F13.3°C 48.2°F9.0°C 73% Calm Calm -- 29.77 in1008.1 mb 0.00 in0.0 mm 0.00 in0.0 mm 0.00 in0.0 mm
12:45 AM 55.8°F13.2°C 48.2°F9.0°C 73% Calm Calm -- 29.77 in1008.1 mb 0.00 in0.0 mm 0.00 in0.0 mm 0.00 in0.0 mm
12:50 AM 55.8°F13.2°C 48.2°F9.0°C 73% Calm Calm -- 29.77 in1008.1 mb 0.00 in0.0 mm 0.00 in0.0 mm 0.00 in0.0 mm
12:55 AM 55.8°F13.2°C 48.2°F9.0°C 73% Calm Calm -- 29.73 in1006.8 mb 0.00 in0.0 mm 0.00 in0.0 mm 0.00 in0.0 mm
01:00 AM 55.8°F13.2°C 48.2°F9.0°C 73% Calm Calm -- 29.73 in1006.8 mb 0.00 in0.0 mm 0.00 in0.0 mm 0.00 in0.0 mm
01:05 AM 55.6°F13.1°C 48.2°F9.0°C 73% Calm Calm -- 29.73 in1006.8 mb 0.00 in0.0 mm 0.00 in0.0 mm 0.00 in0.0 mm
01:10 AM 55.6°F13.1°C 48.2°F9.0°C 74% Calm Calm -- 29.77 in1008.1 mb 0.00 in0.0 mm 0.00 in0.0 mm 0.00 in0.0 mm
01:15 AM 55.6°F13.1°C 48.2°F9.0°C 74% Calm Calm -- 29.77 in1008.1 mb 0.00 in0.0 mm 0.00 in0.0 mm 0.00 in0.0 mm
01:20 AM 55.6°F13.1°C 48.2°F9.0°C 74% Calm Calm -- 29.77 in1008.1 mb 0.00 in0.0 mm 0.00 in0.0 mm 0.00 in0.0 mm
01:25 AM 55.6°F13.1°C 48.2°F9.0°C 74% Calm Calm -- 29.73 in1006.8 mb 0.00 in0.0 mm 0.00 in0.0 mm 0.00 in0.0 mm
01:30 AM 55.6°F13.1°C 48.2°F9.0°C 74% Calm Calm -- 29.73 in1006.8 mb 0.00 in0.0 mm 0.00 in0.0 mm 0.00 in0.0 mm
01:35 AM 55.6°F13.1°C 48.2°F9.0°C 74% Calm Calm -- 29.73 in1006.8 mb 0.00 in0.0 mm 0.00 in0.0 mm 0.00 in0.0 mm
01:40 AM 55.4°F13.0°C 48.2°F9.0°C 74% Calm Calm -- 29.77 in1008.1 mb 0.00 in0.0 mm 0.00 in0.0 mm 0.00 in0.0 mm
01:45 AM 55.6°F13.1°C 48.2°F9.0°C 74% Calm Calm -- 29.77 in1008.1 mb 0.00 in0.0 mm 0.00 in0.0 mm 0.00 in0.0 mm
01:50 AM 55.6°F13.1°C 48.2°F9.0°C 74% Calm Calm -- 29.77 in1008.1 mb 0.00 in0.0 mm 0.00 in0.0 mm 0.00 in0.0 mm
01:55 AM 55.6°F13.1°C 48.2°F9.0°C 74% Calm Calm -- 29.77 in1008.1 mb 0.00 in0.0 mm 0.00 in0.0 mm 0.00 in0.0 mm
02:00 AM 55.6°F13.1°C 48.2°F9.0°C 74% Calm Calm -- 29.77 in1008.1 mb 0.00 in0.0 mm 0.00 in0.0 mm 0.00 in0.0 mm
02:05 AM 55.8°F13.2°C 48.2°F9.0°C 74% Calm Calm -- 29.77 in1008.1 mb 0.00 in0.0 mm 0.00 in0.0 mm 0.00 in0.0 mm
02:10 AM 55.8°F13.2°C 48.2°F9.0°C 74% Calm Calm -- 29.79 in1008.8 mb 0.00 in0.0 mm 0.00 in0.0 mm 0.00 in0.0 mm
02:15 AM 55.9°F13.3°C 48.2°F9.0°C 74% Calm Calm -- 29.79 in1008.8 mb 0.00 in0.0 mm 0.00 in0.0 mm 0.00 in0.0 mm
02:20 AM 56.1°F13.4°C 48.2°F9.0°C 73% Calm Calm -- 29.79 in1008.8 mb 0.00 in0.0 mm 0.00 in0.0 mm 0.00 in0.0 mm
02:25 AM 56.3°F13.5°C 48.2°F9.0°C 73% Calm Calm -- 29.77 in1008.1 mb 0.00 in0.0 mm 0.00 in0.0 mm 0.00 in0.0 mm
02:30 AM 56.1°F13.4°C 48.2°F9.0°C 73% Calm Calm -- 29.77 in1008.1 mb 0.00 in0.0 mm 0.00 in0.0 mm 0.00 in0.0 mm
02:35 AM 56.1°F13.4°C 48.2°F9.0°C 73% Calm Calm -- 29.77 in1008.1 mb 0.00 in0.0 mm 0.00 in0.0 mm 0.00 in0.0 mm
02:40 AM 56.3°F13.5°C 48.2°F9.0°C 73% Calm Calm -- 29.77 in1008.1 mb 0.00 in0.0 mm 0.00 in0.0 mm 0.00 in0.0 mm
02:45 AM 56.3°F13.5°C 48.2°F9.0°C 73% Calm Calm -- 29.77 in1008.1 mb 0.00 in0.0 mm 0.00 in0.0 mm 0.00 in0.0 mm
02:50 AM 56.5°F13.6°C 48.2°F9.0°C 73% Calm Calm -- 29.77 in1008.1 mb 0.00 in0.0 mm 0.00 in0.0 mm 0.00 in0.0 mm
02:55 AM 56.7°F13.7°C 48.2°F9.0°C 73% Calm Calm -- 29.77 in1008.1 mb 0.00 in0.0 mm 0.00 in0.0 mm 0.00 in0.0 mm
03:00 AM 56.7°F13.7°C 48.2°F9.0°C 73% Calm Calm -- 29.77 in1008.1 mb 0.00 in0.0 mm 0.00 in0.0 mm 0.00 in0.0 mm
03:05 AM 57.0°F13.9°C 48.2°F9.0°C 73% Calm Calm -- 29.77 in1008.1 mb 0.00 in0.0 mm 0.00 in0.0 mm 0.00 in0.0 mm
03:10 AM 57.2°F14.0°C 48.2°F9.0°C 73% Calm Calm -- 29.79 in1008.8 mb 0.00 in0.0 mm 0.00 in0.0 mm 0.00 in0.0 mm
03:15 AM 57.2°F14.0°C 48.2°F9.0°C 73% Calm Calm -- 29.79 in1008.8 mb 0.00 in0.0 mm 0.00 in0.0 mm 0.00 in0.0 mm
03:20 AM 57.4°F14.1°C 48.2°F9.0°C 72% Calm Calm -- 29.79 in1008.8 mb 0.00 in0.0 mm 0.00 in0.0 mm 0.00 in0.0 mm
03:25 AM 57.4°F14.1°C 48.2°F9.0°C 72% Calm Calm -- 29.77 in1008.1 mb 0.00 in0.0 mm 0.00 in0.0 mm 0.00 in0.0 mm
03:30 AM 57.2°F14.0°C 48.2°F9.0°C 72% Calm Calm -- 29.77 in1008.1 mb 0.00 in0.0 mm 0.00 in0.0 mm 0.00 in0.0 mm
03:35 AM 56.8°F13.8°C 48.2°F9.0°C 73% Calm Calm -- 29.77 in1008.1 mb 0.00 in0.0 mm 0.00 in0.0 mm 0.00 in0.0 mm
03:40 AM 56.7°F13.7°C 48.2°F9.0°C 74% Calm Calm -- 29.77 in1008.1 mb 0.00 in0.0 mm 0.00 in0.0 mm 0.00 in0.0 mm
03:45 AM 56.7°F13.7°C 48.2°F9.0°C 74% Calm Calm -- 29.77 in1008.1 mb 0.00 in0.0 mm 0.00 in0.0 mm 0.00 in0.0 mm
03:50 AM 56.5°F13.6°C 48.2°F9.0°C 74% Calm Calm -- 29.77 in1008.1 mb 0.00 in0.0 mm 0.00 in0.0 mm 0.00 in0.0 mm
03:55 AM 56.3°F13.5°C 48.2°F9.0°C 74% Calm Calm -- 29.77 in1008.1 mb 0.00 in0.0 mm 0.00 in0.0 mm 0.00 in0.0 mm
04:00 AM 56.1°F13.4°C 48.2°F9.0°C 75% Calm Calm -- 29.77 in1008.1 mb 0.00 in0.0 mm 0.00 in0.0 mm 0.00 in0.0 mm
04:05 AM 55.9°F13.3°C 48.2°F9.0°C 76% Calm Calm -- 29.77 in1008.1 mb 0.00 in0.0 mm 0.00 in0.0 mm 0.00 in0.0 mm
04:10 AM 55.9°F13.3°C 48.2°F9.0°C 76% Calm Calm -- 29.73 in1006.8 mb 0.00 in0.0 mm 0.00 in0.0 mm 0.00 in0.0 mm
04:15 AM 55.8°F13.2°C 48.2°F9.0°C 76% Calm Calm -- 29.73 in1006.8 mb 0.00 in0.0 mm 0.00 in0.0 mm 0.00 in0.0 mm
04:20 AM 55.9°F13.3°C 48.2°F9.0°C 76% Calm Calm -- 29.73 in1006.8 mb 0.00 in0.0 mm 0.00 in0.0 mm 0.00 in0.0 mm
04:25 AM 55.9°F13.3°C 48.2°F9.0°C 76% Calm Calm -- 29.77 in1008.1 mb 0.00 in0.0 mm 0.00 in0.0 mm 0.00 in0.0 mm
04:30 AM 55.9°F13.3°C 48.2°F9.0°C 76% Calm Calm -- 29.77 in1008.1 mb 0.00 in0.0 mm 0.00 in0.0 mm 0.00 in0.0 mm
04:35 AM 55.9°F13.3°C 48.2°F9.0°C 76% Calm Calm -- 29.77 in1008.1 mb 0.00 in0.0 mm 0.00 in0.0 mm 0.00 in0.0 mm
04:40 AM 55.8°F13.2°C 48.2°F9.0°C 76% Calm Calm -- 29.77 in1008.1 mb 0.00 in0.0 mm 0.00 in0.0 mm 0.00 in0.0 mm
04:45 AM 55.8°F13.2°C 50.0°F10.0°C 77% Calm Calm -- 29.77 in1008.1 mb 0.00 in0.0 mm 0.00 in0.0 mm 0.00 in0.0 mm
04:50 AM 55.6°F13.1°C 48.2°F9.0°C 77% Calm Calm -- 29.77 in1008.1 mb 0.00 in0.0 mm 0.00 in0.0 mm 0.00 in0.0 mm
04:55 AM 55.4°F13.0°C 48.2°F9.0°C 77% Calm Calm -- 29.77 in1008.1 mb 0.00 in0.0 mm 0.00 in0.0 mm 0.00 in0.0 mm
05:00 AM 55.4°F13.0°C 48.2°F9.0°C 78% Calm Calm -- 29.77 in1008.1 mb 0.00 in0.0 mm 0.00 in0.0 mm 0.00 in0.0 mm
05:05 AM 55.4°F13.0°C 48.2°F9.0°C 78% Calm Calm -- 29.77 in1008.1 mb 0.00 in0.0 mm 0.00 in0.0 mm 0.00 in0.0 mm
05:10 AM 55.2°F12.9°C 48.2°F9.0°C 78% Calm Calm -- 29.77 in1008.1 mb 0.00 in0.0 mm 0.00 in0.0 mm 0.00 in0.0 mm
05:15 AM 55.4°F13.0°C 48.2°F9.0°C 78% Calm Calm -- 29.77 in1008.1 mb 0.00 in0.0 mm 0.00 in0.0 mm 0.00 in0.0 mm
05:20 AM 55.2°F12.9°C 48.2°F9.0°C 78% Calm Calm -- 29.77 in1008.1 mb 0.00 in0.0 mm 0.00 in0.0 mm 0.00 in0.0 mm
05:25 AM 55.2°F12.9°C 48.2°F9.0°C 78% Calm Calm -- 29.77 in1008.1 mb 0.00 in0.0 mm 0.00 in0.0 mm 0.00 in0.0 mm
05:30 AM 55.0°F12.8°C 48.2°F9.0°C 78% Calm Calm -- 29.77 in1008.1 mb 0.00 in0.0 mm 0.00 in0.0 mm 0.00 in0.0 mm
05:35 AM 55.0°F12.8°C 48.2°F9.0°C 78% Calm Calm -- 29.77 in1008.1 mb 0.00 in0.0 mm 0.00 in0.0 mm 0.00 in0.0 mm
05:40 AM 54.9°F12.7°C 48.2°F9.0°C 79% Calm Calm -- 29.77 in1008.1 mb 0.00 in0.0 mm 0.00 in0.0 mm 0.00 in0.0 mm
05:45 AM 55.0°F12.8°C 50.0°F10.0°C 79% Calm Calm -- 29.77 in1008.1 mb 0.00 in0.0 mm 0.00 in0.0 mm 0.00 in0.0 mm
05:50 AM 55.0°F12.8°C 50.0°F10.0°C 79% Calm Calm -- 29.77 in1008.1 mb 0.00 in0.0 mm 0.00 in0.0 mm 0.00 in0.0 mm
05:55 AM 55.0°F12.8°C 50.0°F10.0°C 79% Calm Calm -- 29.77 in1008.1 mb 0.00 in0.0 mm 0.00 in0.0 mm 0.00 in0.0 mm
06:00 AM 54.9°F12.7°C 48.2°F9.0°C 79% Calm Calm -- 29.77 in1008.1 mb 0.00 in0.0 mm 0.00 in0.0 mm 0.00 in0.0 mm
06:05 AM 54.7°F12.6°C 48.2°F9.0°C 79% Calm Calm -- 29.77 in1008.1 mb 0.00 in0.0 mm 0.00 in0.0 mm 0.00 in0.0 mm
06:10 AM 54.7°F12.6°C 50.0°F10.0°C 80% Calm Calm -- 29.79 in1008.8 mb 0.00 in0.0 mm 0.00 in0.0 mm 0.00 in0.0 mm
06:15 AM 54.5°F12.5°C 50.0°F10.0°C 80% Calm Calm -- 29.79 in1008.8 mb 0.00 in0.0 mm 0.00 in0.0 mm 0.00 in0.0 mm
06:20 AM 54.3°F12.4°C 48.2°F9.0°C 80% Calm Calm -- 29.79 in1008.8 mb 0.00 in0.0 mm 0.00 in0.0 mm 0.00 in0.0 mm
06:25 AM 54.3°F12.4°C 48.2°F9.0°C 80% Calm Calm -- 29.77 in1008.1 mb 0.00 in0.0 mm 0.00 in0.0 mm 0.00 in0.0 mm
06:30 AM 54.3°F12.4°C 48.2°F9.0°C 80% Calm Calm -- 29.77 in1008.1 mb 0.00 in0.0 mm 0.00 in0.0 mm 0.00 in0.0 mm
06:35 AM 54.1°F12.3°C 48.2°F9.0°C 81% Calm Calm -- 29.77 in1008.1 mb 0.00 in0.0 mm 0.00 in0.0 mm 0.00 in0.0 mm
06:40 AM 54.1°F12.3°C 48.2°F9.0°C 81% Calm Calm -- 29.77 in1008.1 mb 0.00 in0.0 mm 0.00 in0.0 mm 0.00 in0.0 mm
06:45 AM 54.1°F12.3°C 48.2°F9.0°C 81% Calm Calm -- 29.77 in1008.1 mb 0.00 in0.0 mm 0.00 in0.0 mm 0.00 in0.0 mm
06:50 AM 54.1°F12.3°C 50.0°F10.0°C 82% Calm Calm -- 29.77 in1008.1 mb 0.00 in0.0 mm 0.00 in0.0 mm 0.00 in0.0 mm
06:55 AM 54.1°F12.3°C 50.0°F10.0°C 82% Calm Calm -- 29.77 in1008.1 mb 0.00 in0.0 mm 0.00 in0.0 mm 0.00 in0.0 mm
07:00 AM 54.1°F12.3°C 50.0°F10.0°C 82% Calm Calm -- 29.77 in1008.1 mb 0.00 in0.0 mm 0.00 in0.0 mm 0.00 in0.0 mm
07:05 AM 54.0°F12.2°C 48.2°F9.0°C 82% Calm Calm -- 29.77 in1008.1 mb 0.00 in0.0 mm 0.00 in0.0 mm 0.00 in0.0 mm
07:10 AM 53.2°F11.8°C 48.2°F9.0°C 80% Calm Calm -- 29.77 in1008.1 mb 0.00 in0.0 mm 0.00 in0.0 mm 0.00 in0.0 mm
07:15 AM 52.2°F11.2°C 46.4°F8.0°C 79% Calm Calm -- 29.77 in1008.1 mb 0.00 in0.0 mm 0.00 in0.0 mm 0.00 in0.0 mm
07:20 AM 51.4°F10.8°C 44.6°F7.0°C 79% Calm Calm -- 29.77 in1008.1 mb 0.00 in0.0 mm 0.00 in0.0 mm 0.00 in0.0 mm
07:25 AM 51.1°F10.6°C 46.4°F8.0°C 80% Calm Calm -- 29.77 in1008.1 mb 0.00 in0.0 mm 0.00 in0.0 mm 0.00 in0.0 mm
07:30 AM 50.7°F10.4°C 44.6°F7.0°C 80% Calm Calm -- 29.77 in1008.1 mb 0.00 in0.0 mm 0.00 in0.0 mm 0.00 in0.0 mm
07:35 AM 50.5°F10.3°C 44.6°F7.0°C 81% Calm Calm -- 29.77 in1008.1 mb 0.00 in0.0 mm 0.00 in0.0 mm 0.00 in0.0 mm
07:40 AM 50.7°F10.4°C 46.4°F8.0°C 83% Calm Calm -- 29.77 in1008.1 mb 0.00 in0.0 mm 0.00 in0.0 mm 0.00 in0.0 mm
07:45 AM 51.1°F10.6°C 48.2°F9.0°C 87% Calm Calm -- 29.77 in1008.1 mb 0.00 in0.0 mm 0.00 in0.0 mm 0.00 in0.0 mm
07:50 AM 51.3°F10.7°C 48.2°F9.0°C 87% Calm Calm -- 29.77 in1008.1 mb 0.00 in0.0 mm 0.00 in0.0 mm 0.00 in0.0 mm
07:55 AM 51.4°F10.8°C 48.2°F9.0°C 89% Calm Calm -- 29.77 in1008.1 mb 0.00 in0.0 mm 0.00 in0.0 mm 0.00 in0.0 mm
08:00 AM 51.8°F11.0°C 48.2°F9.0°C 89% Calm Calm -- 29.77 in1008.1 mb 0.00 in0.0 mm 0.00 in0.0 mm 0.00 in0.0 mm
08:05 AM 52.2°F11.2°C 50.0°F10.0°C 89% Calm Calm -- 29.77 in1008.1 mb 0.00 in0.0 mm 0.00 in0.0 mm 0.00 in0.0 mm
08:10 AM 52.3°F11.3°C 50.0°F10.0°C 89% Calm Calm -- 29.77 in1008.1 mb 0.00 in0.0 mm 0.00 in0.0 mm 0.00 in0.0 mm
08:15 AM 52.5°F11.4°C 48.2°F9.0°C 88% Calm Calm -- 29.77 in1008.1 mb 0.00 in0.0 mm 0.00 in0.0 mm 0.00 in0.0 mm
08:20 AM 52.7°F11.5°C 50.0°F10.0°C 87% Calm Calm -- 29.77 in1008.1 mb 0.00 in0.0 mm 0.00 in0.0 mm 0.00 in0.0 mm
08:25 AM 52.9°F11.6°C 50.0°F10.0°C 87% Calm Calm -- 29.77 in1008.1 mb 0.00 in0.0 mm 0.00 in0.0 mm 0.00 in0.0 mm
08:30 AM 53.1°F11.7°C 50.0°F10.0°C 87% Calm Calm -- 29.77 in1008.1 mb 0.00 in0.0 mm 0.00 in0.0 mm 0.00 in0.0 mm
08:35 AM 53.6°F12.0°C 50.0°F10.0°C 87% Calm Calm -- 29.77 in1008.1 mb 0.00 in0.0 mm 0.00 in0.0 mm 0.00 in0.0 mm
08:40 AM 54.0°F12.2°C 50.0°F10.0°C 86% Calm Calm -- 29.73 in1006.8 mb 0.00 in0.0 mm 0.00 in0.0 mm 0.00 in0.0 mm
08:45 AM 54.3°F12.4°C 50.0°F10.0°C 85% Calm Calm -- 29.73 in1006.8 mb 0.00 in0.0 mm 0.00 in0.0 mm 0.00 in0.0 mm
08:50 AM 54.7°F12.6°C 51.8°F11.0°C 85% Calm Calm -- 29.73 in1006.8 mb 0.00 in0.0 mm 0.00 in0.0 mm 0.00 in0.0 mm
08:55 AM 54.9°F12.7°C 50.0°F10.0°C 84% Calm Calm -- 29.77 in1008.1 mb 0.00 in0.0 mm 0.00 in0.0 mm 0.00 in0.0 mm
09:00 AM 55.2°F12.9°C 50.0°F10.0°C 83% Calm Calm -- 29.77 in1008.1 mb 0.00 in0.0 mm 0.00 in0.0 mm 0.00 in0.0 mm
09:05 AM 55.4°F13.0°C 50.0°F10.0°C 83% Calm Calm -- 29.77 in1008.1 mb 0.00 in0.0 mm 0.00 in0.0 mm 0.00 in0.0 mm
09:10 AM 55.4°F13.0°C 50.0°F10.0°C 83% Calm Calm -- 29.77 in1008.1 mb 0.00 in0.0 mm 0.00 in0.0 mm 0.00 in0.0 mm
09:15 AM 55.2°F12.9°C 50.0°F10.0°C 82% Calm Calm -- 29.77 in1008.1 mb 0.00 in0.0 mm 0.00 in0.0 mm 0.00 in0.0 mm
09:20 AM 55.0°F12.8°C 50.0°F10.0°C 82% Calm Calm -- 29.77 in1008.1 mb 0.00 in0.0 mm 0.00 in0.0 mm 0.00 in0.0 mm
09:25 AM 55.0°F12.8°C 50.0°F10.0°C 82% Calm Calm -- 29.77 in1008.1 mb 0.00 in0.0 mm 0.00 in0.0 mm 0.00 in0.0 mm
09:30 AM 55.2°F12.9°C 51.8°F11.0°C 84% Calm Calm -- 29.77 in1008.1 mb 0.00 in0.0 mm 0.00 in0.0 mm 0.00 in0.0 mm
09:35 AM 55.6°F13.1°C 51.8°F11.0°C 84% Calm Calm -- 29.77 in1008.1 mb 0.00 in0.0 mm 0.00 in0.0 mm 0.00 in0.0 mm
09:40 AM 55.9°F13.3°C 51.8°F11.0°C 84% Calm Calm -- 29.73 in1006.8 mb 0.00 in0.0 mm 0.00 in0.0 mm 0.00 in0.0 mm
09:45 AM 56.3°F13.5°C 51.8°F11.0°C 83% Calm Calm -- 29.73 in1006.8 mb 0.00 in0.0 mm 0.00 in0.0 mm 0.00 in0.0 mm
09:50 AM 56.8°F13.8°C 51.8°F11.0°C 83% Calm Calm -- 29.73 in1006.8 mb 0.00 in0.0 mm 0.00 in0.0 mm 0.00 in0.0 mm
09:55 AM 57.0°F13.9°C 51.8°F11.0°C 82% Calm Calm -- 29.77 in1008.1 mb 0.00 in0.0 mm 0.00 in0.0 mm 0.00 in0.0 mm
10:00 AM 57.2°F14.0°C 51.8°F11.0°C 81% Calm Calm -- 29.77 in1008.1 mb 0.00 in0.0 mm 0.00 in0.0 mm 0.00 in0.0 mm
10:05 AM 57.0°F13.9°C 51.8°F11.0°C 81% Calm Calm -- 29.77 in1008.1 mb 0.00 in0.0 mm 0.00 in0.0 mm 0.00 in0.0 mm
10:10 AM 57.2°F14.0°C 51.8°F11.0°C 82% Calm Calm -- 29.77 in1008.1 mb 0.00 in0.0 mm 0.00 in0.0 mm 0.00 in0.0 mm
10:15 AM 57.4°F14.1°C 51.8°F11.0°C 82% Calm Calm -- 29.77 in1008.1 mb 0.00 in0.0 mm 0.00 in0.0 mm 0.00 in0.0 mm
10:20 AM 57.4°F14.1°C 51.8°F11.0°C 81% Calm Calm -- 29.77 in1008.1 mb 0.00 in0.0 mm 0.00 in0.0 mm 0.00 in0.0 mm
10:25 AM 57.6°F14.2°C 51.8°F11.0°C 81% Calm Calm -- 29.77 in1008.1 mb 0.00 in0.0 mm 0.00 in0.0 mm 0.00 in0.0 mm
10:30 AM 57.7°F14.3°C 51.8°F11.0°C 81% Calm Calm -- 29.77 in1008.1 mb 0.00 in0.0 mm 0.00 in0.0 mm 0.00 in0.0 mm
10:35 AM 57.9°F14.4°C 51.8°F11.0°C 80% Calm Calm -- 29.77 in1008.1 mb 0.00 in0.0 mm 0.00 in0.0 mm 0.00 in0.0 mm
10:40 AM 58.1°F14.5°C 53.6°F12.0°C 81% Calm Calm -- 29.77 in1008.1 mb 0.00 in0.0 mm 0.00 in0.0 mm 0.00 in0.0 mm
10:45 AM 58.5°F14.7°C 53.6°F12.0°C 80% Calm Calm -- 29.77 in1008.1 mb 0.00 in0.0 mm 0.00 in0.0 mm 0.00 in0.0 mm
10:50 AM 58.6°F14.8°C 53.6°F12.0°C 80% Calm Calm -- 29.77 in1008.1 mb 0.00 in0.0 mm 0.00 in0.0 mm 0.00 in0.0 mm
10:55 AM 58.8°F14.9°C 53.6°F12.0°C 80% Calm Calm -- 29.73 in1006.8 mb 0.00 in0.0 mm 0.00 in0.0 mm 0.00 in0.0 mm
11:00 AM 59.0°F15.0°C 53.6°F12.0°C 80% Calm Calm -- 29.73 in1006.8 mb 0.00 in0.0 mm 0.00 in0.0 mm 0.00 in0.0 mm
11:05 AM 59.2°F15.1°C 53.6°F12.0°C 80% Calm Calm -- 29.73 in1006.8 mb 0.00 in0.0 mm 0.00 in0.0 mm 0.00 in0.0 mm
11:10 AM 59.4°F15.2°C 53.6°F12.0°C 79% Calm Calm -- 29.73 in1006.8 mb 0.00 in0.0 mm 0.00 in0.0 mm 0.00 in0.0 mm
11:15 AM 59.5°F15.3°C 53.6°F12.0°C 79% Calm Calm -- 29.73 in1006.8 mb 0.00 in0.0 mm 0.00 in0.0 mm 0.00 in0.0 mm
11:20 AM 59.5°F15.3°C 53.6°F12.0°C 79% Calm Calm -- 29.73 in1006.8 mb 0.00 in0.0 mm 0.00 in0.0 mm 0.00 in0.0 mm
11:25 AM 59.7°F15.4°C 53.6°F12.0°C 79% Calm Calm -- 29.73 in1006.8 mb 0.00 in0.0 mm 0.00 in0.0 mm 0.00 in0.0 mm
11:30 AM 59.9°F15.5°C 53.6°F12.0°C 79% Calm Calm -- 29.73 in1006.8 mb 0.00 in0.0 mm 0.00 in0.0 mm 0.00 in0.0 mm
11:35 AM 59.9°F15.5°C 53.6°F12.0°C 79% Calm Calm -- 29.73 in1006.8 mb 0.00 in0.0 mm 0.00 in0.0 mm 0.00 in0.0 mm
11:40 AM 60.1°F15.6°C 53.6°F12.0°C 79% Calm Calm -- 29.73 in1006.8 mb 0.00 in0.0 mm 0.00 in0.0 mm 0.00 in0.0 mm
11:45 AM 60.3°F15.7°C 53.6°F12.0°C 79% Calm Calm -- 29.73 in1006.8 mb 0.00 in0.0 mm 0.00 in0.0 mm 0.00 in0.0 mm
11:50 AM 60.3°F15.7°C 53.6°F12.0°C 78% Calm Calm -- 29.73 in1006.8 mb 0.00 in0.0 mm 0.00 in0.0 mm 0.00 in0.0 mm
11:55 AM 60.6°F15.9°C 53.6°F12.0°C 78% Calm Calm -- 29.71 in1006.1 mb 0.00 in0.0 mm 0.00 in0.0 mm 0.00 in0.0 mm
12:00 PM 60.8°F16.0°C 53.6°F12.0°C 77% Calm Calm -- 29.71 in1006.1 mb 0.00 in0.0 mm 0.00 in0.0 mm 0.00 in0.0 mm
12:05 PM 61.0°F16.1°C 53.6°F12.0°C 78% Calm Calm -- 29.71 in1006.1 mb 0.00 in0.0 mm 0.00 in0.0 mm 0.00 in0.0 mm
12:10 PM 61.2°F16.2°C 55.4°F13.0°C 77% Calm Calm -- 29.68 in1005.1 mb 0.00 in0.0 mm 0.00 in0.0 mm 0.00 in0.0 mm
12:15 PM 61.3°F16.3°C 53.6°F12.0°C 76% Calm Calm -- 29.68 in1005.1 mb 0.00 in0.0 mm 0.00 in0.0 mm 0.00 in0.0 mm
12:20 PM 61.3°F16.3°C 53.6°F12.0°C 76% Calm Calm -- 29.68 in1005.1 mb 0.00 in0.0 mm 0.00 in0.0 mm 0.00 in0.0 mm
12:25 PM 61.3°F16.3°C 53.6°F12.0°C 76% Calm Calm -- 29.71 in1006.1 mb 0.00 in0.0 mm 0.00 in0.0 mm 0.00 in0.0 mm
12:30 PM 61.3°F16.3°C 53.6°F12.0°C 76% Calm Calm -- 29.71 in1006.1 mb 0.00 in0.0 mm 0.00 in0.0 mm 0.00 in0.0 mm
12:35 PM 61.3°F16.3°C 53.6°F12.0°C 76% Calm Calm -- 29.71 in1006.1 mb 0.00 in0.0 mm 0.00 in0.0 mm 0.00 in0.0 mm
12:40 PM 61.5°F16.4°C 53.6°F12.0°C 76% Calm Calm -- 29.71 in1006.1 mb 0.00 in0.0 mm 0.00 in0.0 mm 0.00 in0.0 mm
12:45 PM 61.7°F16.5°C 55.4°F13.0°C 75% Calm Calm -- 29.71 in1006.1 mb 0.00 in0.0 mm 0.00 in0.0 mm 0.00 in0.0 mm
12:50 PM 61.9°F16.6°C 53.6°F12.0°C 74% Calm Calm -- 29.71 in1006.1 mb 0.00 in0.0 mm 0.00 in0.0 mm 0.00 in0.0 mm
12:55 PM 61.9°F16.6°C 53.6°F12.0°C 74% Calm Calm -- 29.68 in1005.1 mb 0.00 in0.0 mm 0.00 in0.0 mm 0.00 in0.0 mm
01:00 PM 61.9°F16.6°C 53.6°F12.0°C 73% Calm Calm -- 29.68 in1005.1 mb 0.00 in0.0 mm 0.00 in0.0 mm 0.00 in0.0 mm
01:05 PM 61.9°F16.6°C 53.6°F12.0°C 73% Calm Calm -- 29.68 in1005.1 mb 0.00 in0.0 mm 0.00 in0.0 mm 0.00 in0.0 mm
01:10 PM 61.7°F16.5°C 53.6°F12.0°C 72% Calm Calm -- 29.68 in1005.1 mb 0.00 in0.0 mm 0.00 in0.0 mm 0.00 in0.0 mm
01:15 PM 61.7°F16.5°C 53.6°F12.0°C 72% Calm Calm -- 29.68 in1005.1 mb 0.00 in0.0 mm 0.00 in0.0 mm 0.00 in0.0 mm
01:20 PM 61.7°F16.5°C 53.6°F12.0°C 71% Calm Calm -- 29.68 in1005.1 mb 0.00 in0.0 mm 0.00 in0.0 mm 0.00 in0.0 mm
01:25 PM 61.7°F16.5°C 53.6°F12.0°C 71% Calm Calm -- 29.65 in1004.1 mb 0.00 in0.0 mm 0.00 in0.0 mm 0.00 in0.0 mm
01:30 PM 61.7°F16.5°C 53.6°F12.0°C 71% Calm Calm -- 29.65 in1004.1 mb 0.00 in0.0 mm 0.00 in0.0 mm 0.00 in0.0 mm
01:35 PM 61.7°F16.5°C 51.8°F11.0°C 70% Calm Calm -- 29.65 in1004.1 mb 0.00 in0.0 mm 0.00 in0.0 mm 0.00 in0.0 mm
01:40 PM 61.7°F16.5°C 51.8°F11.0°C 69% Calm Calm -- 29.65 in1004.1 mb 0.00 in0.0 mm 0.00 in0.0 mm 0.00 in0.0 mm
01:45 PM 61.7°F16.5°C 51.8°F11.0°C 68% Calm Calm -- 29.65 in1004.1 mb 0.00 in0.0 mm 0.00 in0.0 mm 0.00 in0.0 mm
01:50 PM 61.7°F16.5°C 51.8°F11.0°C 68% Calm Calm -- 29.65 in1004.1 mb 0.00 in0.0 mm 0.00 in0.0 mm 0.00 in0.0 mm
01:55 PM 61.5°F16.4°C 51.8°F11.0°C 68% Calm Calm -- 29.65 in1004.1 mb 0.00 in0.0 mm 0.00 in0.0 mm 0.00 in0.0 mm
02:00 PM 61.3°F16.3°C 50.0°F10.0°C 67% Calm Calm -- 29.65 in1004.1 mb 0.00 in0.0 mm 0.00 in0.0 mm 0.00 in0.0 mm
02:05 PM 61.3°F16.3°C 50.0°F10.0°C 67% Calm Calm -- 29.65 in1004.1 mb 0.00 in0.0 mm 0.00 in0.0 mm 0.00 in0.0 mm
02:10 PM 61.2°F16.2°C 51.8°F11.0°C 68% Calm Calm -- 29.65 in1004.1 mb 0.00 in0.0 mm 0.00 in0.0 mm 0.00 in0.0 mm
02:15 PM 61.2°F16.2°C 50.0°F10.0°C 67% Calm Calm -- 29.65 in1004.1 mb 0.00 in0.0 mm 0.00 in0.0 mm 0.00 in0.0 mm
02:20 PM 61.0°F16.1°C 50.0°F10.0°C 67% Calm Calm -- 29.65 in1004.1 mb 0.00 in0.0 mm 0.00 in0.0 mm 0.00 in0.0 mm
02:25 PM 61.0°F16.1°C 50.0°F10.0°C 67% Calm Calm -- 29.62 in1003.0 mb 0.00 in0.0 mm 0.00 in0.0 mm 0.00 in0.0 mm
02:30 PM 60.8°F16.0°C 50.0°F10.0°C 68% Calm Calm -- 29.62 in1003.0 mb 0.00 in0.0 mm 0.00 in0.0 mm 0.00 in0.0 mm
02:35 PM 60.8°F16.0°C 50.0°F10.0°C 68% Calm Calm -- 29.62 in1003.0 mb 0.00 in0.0 mm 0.00 in0.0 mm 0.00 in0.0 mm
02:40 PM 60.4°F15.8°C 50.0°F10.0°C 69% Calm Calm -- 29.65 in1004.1 mb 0.00 in0.0 mm 0.00 in0.0 mm 0.00 in0.0 mm
02:45 PM 60.1°F15.6°C 50.0°F10.0°C 70% Calm Calm -- 29.65 in1004.1 mb 0.00 in0.0 mm 0.00 in0.0 mm 0.00 in0.0 mm
02:50 PM 60.1°F15.6°C 50.0°F10.0°C 70% Calm Calm -- 29.65 in1004.1 mb 0.00 in0.0 mm 0.00 in0.0 mm 0.00 in0.0 mm
02:55 PM 60.1°F15.6°C 51.8°F11.0°C 71% Calm Calm -- 29.62 in1003.0 mb 0.00 in0.0 mm 0.00 in0.0 mm 0.00 in0.0 mm
03:00 PM 60.3°F15.7°C 51.8°F11.0°C 71% Calm Calm -- 29.62 in1003.0 mb 0.00 in0.0 mm 0.00 in0.0 mm 0.00 in0.0 mm
03:05 PM 60.6°F15.9°C 51.8°F11.0°C 71% Calm Calm -- 29.62 in1003.0 mb 0.00 in0.0 mm 0.00 in0.0 mm 0.00 in0.0 mm
03:10 PM 61.2°F16.2°C 51.8°F11.0°C 70% Calm Calm -- 29.65 in1004.1 mb 0.00 in0.0 mm 0.00 in0.0 mm 0.00 in0.0 mm
03:15 PM 61.2°F16.2°C 51.8°F11.0°C 69% Calm Calm -- 29.65 in1004.1 mb 0.00 in0.0 mm 0.00 in0.0 mm 0.00 in0.0 mm
03:20 PM 61.2°F16.2°C 51.8°F11.0°C 69% Calm Calm -- 29.65 in1004.1 mb 0.00 in0.0 mm 0.00 in0.0 mm 0.00 in0.0 mm
03:25 PM 61.2°F16.2°C 51.8°F11.0°C 68% Calm Calm -- 29.65 in1004.1 mb 0.00 in0.0 mm 0.00 in0.0 mm 0.00 in0.0 mm
03:30 PM 61.0°F16.1°C 50.0°F10.0°C 69% Calm Calm -- 29.65 in1004.1 mb 0.00 in0.0 mm 0.00 in0.0 mm 0.00 in0.0 mm
03:35 PM 61.0°F16.1°C 50.0°F10.0°C 69% Calm Calm -- 29.65 in1004.1 mb 0.00 in0.0 mm 0.00 in0.0 mm 0.00 in0.0 mm
03:40 PM 60.8°F16.0°C 51.8°F11.0°C 70% Calm Calm -- 29.65 in1004.1 mb 0.00 in0.0 mm 0.00 in0.0 mm 0.00 in0.0 mm
03:45 PM 60.8°F16.0°C 51.8°F11.0°C 70% Calm Calm -- 29.65 in1004.1 mb 0.00 in0.0 mm 0.00 in0.0 mm 0.00 in0.0 mm
03:50 PM 60.8°F16.0°C 51.8°F11.0°C 70% Calm Calm -- 29.65 in1004.1 mb 0.00 in0.0 mm 0.00 in0.0 mm 0.00 in0.0 mm
03:55 PM 60.8°F16.0°C 51.8°F11.0°C 70% Calm Calm -- 29.65 in1004.1 mb 0.00 in0.0 mm 0.00 in0.0 mm 0.00 in0.0 mm
04:00 PM 60.8°F16.0°C 50.0°F10.0°C 69% Calm Calm -- 29.65 in1004.1 mb 0.00 in0.0 mm 0.00 in0.0 mm 0.00 in0.0 mm
04:05 PM 60.8°F16.0°C 51.8°F11.0°C 70% Calm Calm -- 29.65 in1004.1 mb 0.00 in0.0 mm 0.00 in0.0 mm 0.00 in0.0 mm
04:10 PM 61.5°F16.4°C 51.8°F11.0°C 69% Calm Calm 1.3 mph2.1 kmh 29.65 in1004.1 mb 0.00 in0.0 mm 0.00 in0.0 mm 0.00 in0.0 mm
04:15 PM 62.2°F16.8°C 51.8°F11.0°C 69% Calm Calm 1.3 mph2.1 kmh 29.65 in1004.1 mb 0.00 in0.0 mm 0.00 in0.0 mm 0.00 in0.0 mm
04:20 PM 62.6°F17.0°C 51.8°F11.0°C 65% Calm Calm 1.3 mph2.1 kmh 29.65 in1004.1 mb 0.00 in0.0 mm 0.00 in0.0 mm 0.00 in0.0 mm
04:25 PM 62.6°F17.0°C 50.0°F10.0°C 64% Calm Calm 1.3 mph2.1 kmh 29.65 in1004.1 mb 0.00 in0.0 mm 0.00 in0.0 mm 0.00 in0.0 mm
04:30 PM 62.6°F17.0°C 50.0°F10.0°C 63% Calm Calm 1.3 mph2.1 kmh 29.65 in1004.1 mb 0.00 in0.0 mm 0.00 in0.0 mm 0.00 in0.0 mm
04:35 PM 62.8°F17.1°C 50.0°F10.0°C 63% Calm Calm 1.3 mph2.1 kmh 29.65 in1004.1 mb 0.00 in0.0 mm 0.00 in0.0 mm 0.00 in0.0 mm
04:40 PM 63.0°F17.2°C 50.0°F10.0°C 62% Calm Calm 1.3 mph2.1 kmh 29.65 in1004.1 mb 0.00 in0.0 mm 0.00 in0.0 mm 0.00 in0.0 mm
04:45 PM 62.8°F17.1°C 50.0°F10.0°C 63% Calm Calm 1.3 mph2.1 kmh 29.65 in1004.1 mb 0.00 in0.0 mm 0.00 in0.0 mm 0.00 in0.0 mm
04:50 PM 62.8°F17.1°C 50.0°F10.0°C 62% Calm Calm 1.3 mph2.1 kmh 29.65 in1004.1 mb 0.00 in0.0 mm 0.00 in0.0 mm 0.00 in0.0 mm
04:55 PM 62.6°F17.0°C 50.0°F10.0°C 62% Calm Calm 1.3 mph2.1 kmh 29.65 in1004.1 mb 0.00 in0.0 mm 0.00 in0.0 mm 0.00 in0.0 mm
05:00 PM 62.4°F16.9°C 50.0°F10.0°C 63% Calm Calm 1.3 mph2.1 kmh 29.65 in1004.1 mb 0.00 in0.0 mm 0.00 in0.0 mm 0.00 in0.0 mm
05:05 PM 62.4°F16.9°C 50.0°F10.0°C 63% Calm Calm 1.3 mph2.1 kmh 29.65 in1004.1 mb 0.00 in0.0 mm 0.00 in0.0 mm 0.00 in0.0 mm
05:10 PM 62.4°F16.9°C 50.0°F10.0°C 62% Calm Calm 1.3 mph2.1 kmh 29.62 in1003.0 mb 0.00 in0.0 mm 0.00 in0.0 mm 0.00 in0.0 mm
05:15 PM 62.4°F16.9°C 50.0°F10.0°C 62% Calm Calm 1.3 mph2.1 kmh 29.62 in1003.0 mb 0.00 in0.0 mm 0.00 in0.0 mm 0.00 in0.0 mm
05:20 PM 62.2°F16.8°C 48.2°F9.0°C 62% Calm Calm 1.3 mph2.1 kmh 29.62 in1003.0 mb 0.00 in0.0 mm 0.00 in0.0 mm 0.00 in0.0 mm
05:25 PM 62.1°F16.7°C 48.2°F9.0°C 62% Calm Calm 1.3 mph2.1 kmh 29.62 in1003.0 mb 0.00 in0.0 mm 0.00 in0.0 mm 0.00 in0.0 mm
05:30 PM 61.9°F16.6°C 48.2°F9.0°C 62% Calm Calm 1.3 mph2.1 kmh 29.62 in1003.0 mb 0.00 in0.0 mm 0.00 in0.0 mm 0.00 in0.0 mm
05:35 PM 61.5°F16.4°C 48.2°F9.0°C 63% Calm Calm 1.3 mph2.1 kmh 29.62 in1003.0 mb 0.00 in0.0 mm 0.00 in0.0 mm 0.00 in0.0 mm
05:40 PM 60.8°F16.0°C 48.2°F9.0°C 64% Calm Calm 1.3 mph2.1 kmh 29.65 in1004.1 mb 0.00 in0.0 mm 0.00 in0.0 mm 0.00 in0.0 mm
05:45 PM 60.3°F15.7°C 48.2°F9.0°C 64% Calm Calm 1.3 mph2.1 kmh 29.65 in1004.1 mb 0.00 in0.0 mm 0.00 in0.0 mm 0.00 in0.0 mm
05:50 PM 59.9°F15.5°C 48.2°F9.0°C 65% Calm Calm 1.3 mph2.1 kmh 29.65 in1004.1 mb 0.00 in0.0 mm 0.00 in0.0 mm 0.00 in0.0 mm
05:55 PM 59.4°F15.2°C 48.2°F9.0°C 66% Calm Calm 1.3 mph2.1 kmh 29.65 in1004.1 mb 0.00 in0.0 mm 0.00 in0.0 mm 0.00 in0.0 mm
06:00 PM 59.0°F15.0°C 48.2°F9.0°C 67% Calm Calm 1.3 mph2.1 kmh 29.65 in1004.1 mb 0.00 in0.0 mm 0.00 in0.0 mm 0.00 in0.0 mm
06:05 PM 58.6°F14.8°C 48.2°F9.0°C 68% Calm Calm 1.3 mph2.1 kmh 29.65 in1004.1 mb 0.00 in0.0 mm 0.00 in0.0 mm 0.00 in0.0 mm
06:10 PM 58.3°F14.6°C 48.2°F9.0°C 69% Calm Calm 1.3 mph2.1 kmh 29.65 in1004.1 mb 0.00 in0.0 mm 0.00 in0.0 mm 0.00 in0.0 mm
06:15 PM 57.9°F14.4°C 48.2°F9.0°C 69% Calm Calm 1.3 mph2.1 kmh 29.65 in1004.1 mb 0.00 in0.0 mm 0.00 in0.0 mm 0.00 in0.0 mm
06:20 PM 57.7°F14.3°C 48.2°F9.0°C 70% Calm Calm 1.3 mph2.1 kmh 29.65 in1004.1 mb 0.00 in0.0 mm 0.00 in0.0 mm 0.00 in0.0 mm
06:25 PM 57.7°F14.3°C 48.2°F9.0°C 71% Calm Calm 1.3 mph2.1 kmh 29.65 in1004.1 mb 0.00 in0.0 mm 0.00 in0.0 mm 0.00 in0.0 mm
06:30 PM 57.7°F14.3°C 48.2°F9.0°C 71% Calm Calm 1.3 mph2.1 kmh 29.65 in1004.1 mb 0.00 in0.0 mm 0.00 in0.0 mm 0.00 in0.0 mm
06:35 PM 57.6°F14.2°C 50.0°F10.0°C 72% Calm Calm 1.3 mph2.1 kmh 29.65 in1004.1 mb 0.00 in0.0 mm 0.00 in0.0 mm 0.00 in0.0 mm
06:40 PM 57.6°F14.2°C 50.0°F10.0°C 72% Calm Calm 1.3 mph2.1 kmh 29.65 in1004.1 mb 0.00 in0.0 mm 0.00 in0.0 mm 0.00 in0.0 mm
06:45 PM 57.6°F14.2°C 50.0°F10.0°C 72% Calm Calm 1.3 mph2.1 kmh 29.65 in1004.1 mb 0.00 in0.0 mm 0.00 in0.0 mm 0.00 in0.0 mm
06:50 PM 57.4°F14.1°C 48.2°F9.0°C 72% Calm Calm 1.3 mph2.1 kmh 29.65 in1004.1 mb 0.00 in0.0 mm 0.00 in0.0 mm 0.00 in0.0 mm
06:55 PM 57.0°F13.9°C 48.2°F9.0°C 72% Calm Calm 1.3 mph2.1 kmh 29.62 in1003.0 mb 0.00 in0.0 mm 0.00 in0.0 mm 0.00 in0.0 mm
07:00 PM 56.8°F13.8°C 48.2°F9.0°C 72% Calm Calm 1.3 mph2.1 kmh 29.62 in1003.0 mb 0.00 in0.0 mm 0.00 in0.0 mm 0.00 in0.0 mm
07:05 PM 56.7°F13.7°C 48.2°F9.0°C 72% Calm Calm 1.3 mph2.1 kmh 29.62 in1003.0 mb 0.00 in0.0 mm 0.00 in0.0 mm 0.00 in0.0 mm
07:10 PM 56.8°F13.8°C 48.2°F9.0°C 74% Calm Calm 1.3 mph2.1 kmh 29.65 in1004.1 mb 0.00 in0.0 mm 0.00 in0.0 mm 0.00 in0.0 mm
07:15 PM 57.0°F13.9°C 50.0°F10.0°C 75% Calm Calm 1.3 mph2.1 kmh 29.65 in1004.1 mb 0.00 in0.0 mm 0.00 in0.0 mm 0.00 in0.0 mm
07:20 PM 56.8°F13.8°C 48.2°F9.0°C 74% Calm Calm 1.3 mph2.1 kmh 29.65 in1004.1 mb 0.00 in0.0 mm 0.00 in0.0 mm 0.00 in0.0 mm
07:25 PM 56.7°F13.7°C 50.0°F10.0°C 75% Calm Calm 1.3 mph2.1 kmh 29.65 in1004.1 mb 0.00 in0.0 mm 0.00 in0.0 mm 0.00 in0.0 mm
07:30 PM 56.5°F13.6°C 50.0°F10.0°C 75% Calm Calm 1.3 mph2.1 kmh 29.65 in1004.1 mb 0.00 in0.0 mm 0.00 in0.0 mm 0.00 in0.0 mm
07:35 PM 56.3°F13.5°C 50.0°F10.0°C 75% Calm Calm 1.3 mph2.1 kmh 29.65 in1004.1 mb 0.00 in0.0 mm 0.00 in0.0 mm 0.00 in0.0 mm
07:40 PM 56.1°F13.4°C 48.2°F9.0°C 76% Calm Calm 1.3 mph2.1 kmh 29.62 in1003.0 mb 0.00 in0.0 mm 0.00 in0.0 mm 0.00 in0.0 mm
07:45 PM 55.9°F13.3°C 48.2°F9.0°C 76% Calm Calm 1.3 mph2.1 kmh 29.62 in1003.0 mb 0.00 in0.0 mm 0.00 in0.0 mm 0.00 in0.0 mm
07:50 PM 55.8°F13.2°C 48.2°F9.0°C 76% Calm Calm 1.3 mph2.1 kmh 29.62 in1003.0 mb 0.00 in0.0 mm 0.00 in0.0 mm 0.00 in0.0 mm
07:55 PM 55.2°F12.9°C 48.2°F9.0°C 75% Calm Calm 1.3 mph2.1 kmh 29.65 in1004.1 mb 0.00 in0.0 mm 0.00 in0.0 mm 0.00 in0.0 mm
08:00 PM 54.7°F12.6°C 48.2°F9.0°C 76% Calm Calm 1.3 mph2.1 kmh 29.65 in1004.1 mb 0.00 in0.0 mm 0.00 in0.0 mm 0.00 in0.0 mm
08:05 PM 54.3°F12.4°C 48.2°F9.0°C 76% Calm Calm 1.3 mph2.1 kmh 29.65 in1004.1 mb 0.00 in0.0 mm 0.00 in0.0 mm 0.00 in0.0 mm
08:10 PM 53.8°F12.1°C 46.4°F8.0°C 76% Calm Calm 1.3 mph2.1 kmh 29.65 in1004.1 mb 0.00 in0.0 mm 0.00 in0.0 mm 0.00 in0.0 mm
08:15 PM 53.2°F11.8°C 46.4°F8.0°C 77% Calm Calm 1.3 mph2.1 kmh 29.65 in1004.1 mb 0.00 in0.0 mm 0.00 in0.0 mm 0.00 in0.0 mm
08:20 PM 53.1°F11.7°C 46.4°F8.0°C 79% Calm Calm 1.3 mph2.1 kmh 29.65 in1004.1 mb 0.00 in0.0 mm 0.00 in0.0 mm 0.00 in0.0 mm
08:25 PM 53.1°F11.7°C 48.2°F9.0°C 80% Calm Calm 1.3 mph2.1 kmh 29.65 in1004.1 mb 0.00 in0.0 mm 0.00 in0.0 mm 0.00 in0.0 mm
08:30 PM 52.9°F11.6°C 48.2°F9.0°C 81% Calm Calm 1.3 mph2.1 kmh 29.65 in1004.1 mb 0.00 in0.0 mm 0.00 in0.0 mm 0.00 in0.0 mm
08:35 PM 52.9°F11.6°C 48.2°F9.0°C 83% Calm Calm 1.3 mph2.1 kmh 29.65 in1004.1 mb 0.00 in0.0 mm 0.00 in0.0 mm 0.00 in0.0 mm
08:40 PM 53.1°F11.7°C 48.2°F9.0°C 84% Calm Calm 1.3 mph2.1 kmh 29.62 in1003.0 mb 0.00 in0.0 mm 0.00 in0.0 mm 0.00 in0.0 mm
08:45 PM 53.4°F11.9°C 48.2°F9.0°C 84% Calm Calm 1.3 mph2.1 kmh 29.62 in1003.0 mb 0.00 in0.0 mm 0.00 in0.0 mm 0.00 in0.0 mm
08:50 PM 53.4°F11.9°C 48.2°F9.0°C 83% Calm Calm 1.3 mph2.1 kmh 29.62 in1003.0 mb 0.00 in0.0 mm 0.00 in0.0 mm 0.00 in0.0 mm
08:55 PM 53.4°F11.9°C 48.2°F9.0°C 83% Calm Calm 1.3 mph2.1 kmh 29.65 in1004.1 mb 0.00 in0.0 mm 0.00 in0.0 mm 0.00 in0.0 mm
09:00 PM 53.2°F11.8°C 48.2°F9.0°C 83% Calm Calm 1.3 mph2.1 kmh 29.65 in1004.1 mb 0.00 in0.0 mm 0.00 in0.0 mm 0.00 in0.0 mm
09:05 PM 53.2°F11.8°C 48.2°F9.0°C 83% Calm Calm 1.3 mph2.1 kmh 29.65 in1004.1 mb 0.00 in0.0 mm 0.00 in0.0 mm 0.00 in0.0 mm
09:10 PM 53.1°F11.7°C 48.2°F9.0°C 82% Calm Calm 1.3 mph2.1 kmh 29.65 in1004.1 mb 0.00 in0.0 mm 0.00 in0.0 mm 0.00 in0.0 mm
09:15 PM 52.9°F11.6°C 48.2°F9.0°C 82% Calm Calm 1.3 mph2.1 kmh 29.65 in1004.1 mb 0.00 in0.0 mm 0.00 in0.0 mm 0.00 in0.0 mm
09:20 PM 52.9°F11.6°C 48.2°F9.0°C 82% Calm Calm 1.3 mph2.1 kmh 29.65 in1004.1 mb 0.00 in0.0 mm 0.00 in0.0 mm 0.00 in0.0 mm
09:25 PM 52.9°F11.6°C 48.2°F9.0°C 83% Calm Calm 1.3 mph2.1 kmh 29.65 in1004.1 mb 0.00 in0.0 mm 0.00 in0.0 mm 0.00 in0.0 mm
09:30 PM 53.1°F11.7°C 48.2°F9.0°C 83% Calm Calm 1.3 mph2.1 kmh 29.65 in1004.1 mb 0.00 in0.0 mm 0.00 in0.0 mm 0.00 in0.0 mm
09:35 PM 53.1°F11.7°C 48.2°F9.0°C 83% Calm Calm 1.3 mph2.1 kmh 29.65 in1004.1 mb 0.00 in0.0 mm 0.00 in0.0 mm 0.00 in0.0 mm
09:40 PM 52.9°F11.6°C 48.2°F9.0°C 83% Calm Calm 1.3 mph2.1 kmh 29.65 in1004.1 mb 0.00 in0.0 mm 0.00 in0.0 mm 0.00 in0.0 mm
09:45 PM 52.3°F11.3°C 48.2°F9.0°C 82% Calm Calm 1.3 mph2.1 kmh 29.65 in1004.1 mb 0.00 in0.0 mm 0.00 in0.0 mm 0.00 in0.0 mm
09:50 PM 52.2°F11.2°C 48.2°F9.0°C 82% Calm Calm 1.3 mph2.1 kmh 29.65 in1004.1 mb 0.00 in0.0 mm 0.00 in0.0 mm 0.00 in0.0 mm
09:55 PM 52.0°F11.1°C 46.4°F8.0°C 82% Calm Calm 1.3 mph2.1 kmh 29.65 in1004.1 mb 0.00 in0.0 mm 0.00 in0.0 mm 0.00 in0.0 mm
10:00 PM 51.8°F11.0°C 46.4°F8.0°C 82% Calm Calm 1.3 mph2.1 kmh 29.65 in1004.1 mb 0.00 in0.0 mm 0.00 in0.0 mm 0.00 in0.0 mm
10:05 PM 51.4°F10.8°C 46.4°F8.0°C 82% Calm Calm 1.3 mph2.1 kmh 29.65 in1004.1 mb 0.00 in0.0 mm 0.00 in0.0 mm 0.00 in0.0 mm
10:10 PM 51.3°F10.7°C 46.4°F8.0°C 83% Calm Calm 1.3 mph2.1 kmh 29.65 in1004.1 mb 0.00 in0.0 mm 0.00 in0.0 mm 0.00 in0.0 mm
10:15 PM 50.9°F10.5°C 46.4°F8.0°C 83% Calm Calm 1.3 mph2.1 kmh 29.65 in1004.1 mb 0.00 in0.0 mm 0.00 in0.0 mm 0.00 in0.0 mm
10:20 PM 50.7°F10.4°C 46.4°F8.0°C 83% Calm Calm 1.3 mph2.1 kmh 29.65 in1004.1 mb 0.00 in0.0 mm 0.00 in0.0 mm 0.00 in0.0 mm
10:25 PM 50.5°F10.3°C 46.4°F8.0°C 83% Calm Calm 1.3 mph2.1 kmh 29.65 in1004.1 mb 0.00 in0.0 mm 0.00 in0.0 mm 0.00 in0.0 mm
10:30 PM 50.4°F10.2°C 46.4°F8.0°C 84% Calm Calm 1.3 mph2.1 kmh 29.65 in1004.1 mb 0.00 in0.0 mm 0.00 in0.0 mm 0.00 in0.0 mm
10:35 PM 50.4°F10.2°C 46.4°F8.0°C 84% Calm Calm 1.3 mph2.1 kmh 29.65 in1004.1 mb 0.00 in0.0 mm 0.00 in0.0 mm 0.00 in0.0 mm
10:40 PM 50.4°F10.2°C 46.4°F8.0°C 84% Calm Calm 1.3 mph2.1 kmh 29.68 in1005.1 mb 0.00 in0.0 mm 0.00 in0.0 mm 0.00 in0.0 mm
10:45 PM 50.5°F10.3°C 46.4°F8.0°C 84% Calm Calm 1.3 mph2.1 kmh 29.68 in1005.1 mb 0.00 in0.0 mm 0.00 in0.0 mm 0.00 in0.0 mm
10:50 PM 50.7°F10.4°C 46.4°F8.0°C 85% Calm Calm 1.3 mph2.1 kmh 29.68 in1005.1 mb 0.00 in0.0 mm 0.00 in0.0 mm 0.00 in0.0 mm
10:55 PM 50.7°F10.4°C 46.4°F8.0°C 85% Calm Calm 1.3 mph2.1 kmh 29.68 in1005.1 mb 0.00 in0.0 mm 0.00 in0.0 mm 0.00 in0.0 mm
11:00 PM 50.9°F10.5°C 48.2°F9.0°C 85% Calm Calm 1.3 mph2.1 kmh 29.68 in1005.1 mb 0.00 in0.0 mm 0.00 in0.0 mm 0.00 in0.0 mm
11:05 PM 50.9°F10.5°C 48.2°F9.0°C 85% Calm Calm 1.3 mph2.1 kmh 29.68 in1005.1 mb 0.00 in0.0 mm 0.00 in0.0 mm 0.00 in0.0 mm
11:10 PM 51.1°F10.6°C 48.2°F9.0°C 85% Calm Calm 1.3 mph2.1 kmh 29.68 in1005.1 mb 0.00 in0.0 mm 0.00 in0.0 mm 0.00 in0.0 mm
11:15 PM 50.9°F10.5°C 48.2°F9.0°C 85% Calm Calm 1.3 mph2.1 kmh 29.68 in1005.1 mb 0.00 in0.0 mm 0.00 in0.0 mm 0.00 in0.0 mm
11:20 PM 50.9°F10.5°C 48.2°F9.0°C 85% Calm Calm 1.3 mph2.1 kmh 29.68 in1005.1 mb 0.00 in0.0 mm 0.00 in0.0 mm 0.00 in0.0 mm
11:25 PM 50.7°F10.4°C 46.4°F8.0°C 85% Calm Calm 1.3 mph2.1 kmh 29.68 in1005.1 mb 0.00 in0.0 mm 0.00 in0.0 mm 0.00 in0.0 mm
11:30 PM 50.4°F10.2°C 46.4°F8.0°C 85% Calm Calm 1.3 mph2.1 kmh 29.68 in1005.1 mb 0.00 in0.0 mm 0.00 in0.0 mm 0.00 in0.0 mm
11:35 PM 50.2°F10.1°C 46.4°F8.0°C 84% Calm Calm 1.3 mph2.1 kmh 29.68 in1005.1 mb 0.00 in0.0 mm 0.00 in0.0 mm 0.00 in0.0 mm
11:40 PM 50.0°F10.0°C 46.4°F8.0°C 84% Calm Calm 1.3 mph2.1 kmh 29.68 in1005.1 mb 0.00 in0.0 mm 0.00 in0.0 mm 0.00 in0.0 mm
11:45 PM 49.8°F9.9°C 46.4°F8.0°C 84% Calm Calm 1.3 mph2.1 kmh 29.68 in1005.1 mb 0.00 in0.0 mm 0.00 in0.0 mm 0.00 in0.0 mm
11:50 PM 49.8°F9.9°C 46.4°F8.0°C 85% Calm Calm 1.3 mph2.1 kmh 29.68 in1005.1 mb 0.00 in0.0 mm 0.00 in0.0 mm 0.00 in0.0 mm
11:55 PM 49.8°F9.9°C 46.4°F8.0°C 85% Calm Calm 1.3 mph2.1 kmh 29.65 in1004.1 mb 0.00 in0.0 mm 0.00 in0.0 mm 0.00 in0.0 mm